2019 Ballard Cup Series III
Jul 29, 2019

Sloop Tavern Yacht Club

Committee Boat - Velella

Race 2
R1 R2 R3 R4 R5 Series Overall

Class: 1 - Non-Flying Sails Division - Start: 18:15:00 - Course: NMEMEN - Distance: 4.163      

Boat Name SailNo Boat Type Skipper Rating Club Start Finish Elapsed Corrected BCE Notes Place OA
Whistling Swan 69494 Islander 36-1 Bill Pirrie 174 STYC 18:15:00 19:14:03 0:59:03 0:46:59 0:00:00 1 26
Gusto 44119 Swan 441 Beth Miller 108 STYC 18:15:00 19:12:22 0:57:22 0:49:52 0:02:53 2 38
Stardust 79977 Hunter Legend 37.5 Tito Soto 153 STYC 18:15:00 19:18:28 1:03:28 0:52:51 0:05:52 3 44
Blue Lullaby 391 Newport 28-2 John H Endresen 231 STYC 18:15:00 19:25:53 1:10:53 0:54:51 0:07:52 4 49
Amoretto 79104 Jeanneau Arcada Martin Bower 204 STYC 18:15:00 19:25:43 1:10:43 0:56:34 0:09:35 5 51
White Rabbit 69366 J/40 Bradley Music 105 SBYC 18:15:00 19:20:12 1:05:12 0:57:55 0:10:56 6 54
No Ka Oi 15 J/80 Amy Deckelbaum 141 SSC 18:15:00 19:24:15 1:09:15 0:59:28 0:12:29 7 55
Midnigt Escape 2806 Kirby 25 Borge Ellingsen 204 STYC 18:15:00 19:34:57 1:19:57 1:05:48 0:18:49 8 57
Frog Prints 79070 Dufr D 34 Tim Onders 192 STYC 18:15:00 19:40:30 1:25:30 1:12:11 0:25:12 9 58
Flying Redhead 59285 Choate 27 Maxim Oustiougov 180 STYC 18:15:00 DNC 11 60
Mangata 97971 Catalina 380 Steve Zeliadt 153 STYC 18:15:00 DNC 11 60
Wind Dancer 46489 Tartan 3800 Chris McMuldroch 153 STYC 18:15:00 DNC 11 60

Class: 2 - Flying Sails Division - Start: 18:20:00 - Course: NMEMEN - Distance: 4.163      

Boat Name SailNo Boat Type Skipper Rating Club Start Finish Elapsed Corrected BCE Notes Place OA
Airloom 69410 Baba 40-2 Tim Morgenroth 168 STYC 18:20:00 19:16:57 0:56:57 0:45:18 0:00:00 1 19
Lady Too 59382 San Jaun 28 Damon Darley 201 STYC 18:20:00 19:21:03 1:01:03 0:47:06 0:01:48 2 27
Rock Lobster 59306 San Juan 7.7 Trent Piepho 210 STYC 18:20:00 19:22:59 1:02:59 0:48:25 0:03:07 3 33
Aquavit 3242 If Dave And Jenn 285 Sloop Tavern/Cyc 18:20:00 19:28:17 1:08:17 0:48:31 0:03:13 4 34
Water Street 1376 Cal 2-24 Mark Jackson 252 STYC 18:20:00 19:27:12 1:07:12 0:49:43 0:04:25 5 37
Sea Haven 930 Catalina 34 Cary Kaczowka 192 STYC/CYC 18:20:00 19:33:21 1:13:21 1:00:02 0:14:44 6 56
Jubilee USA 61251 1984 C&C Landfall 35 David Golden 186 STYC 18:20:00 DNC 8 60

Class: 3 - Flying Sails Division - Start: 18:25:00 - Course: NMEMEN - Distance: 4.163      

Boat Name SailNo Boat Type Skipper Rating Club Start Finish Elapsed Corrected BCE Notes Place OA
Wizard 40427 J/27 Leo S Morales 135 WYC 18:25:00 19:19:12 0:54:12 0:44:50 0:00:00 1 16
Perfectly Strange 87210 Pocket Rocket 22-1 Paul Kalina 174 STYC 18:25:00 19:22:47 0:57:47 0:45:43 0:00:53 2 23
Zap 59269 Zap 26 Don Sarin 147 STYC 18:25:00 19:23:01 0:58:01 0:47:49 0:02:59 3 32
The Banana Stand 104 Santa Cruz 27 Adam Yuret 162 STYC 18:25:00 19:32:02 1:07:02 0:55:48 0:10:58 4 50
La Lucha Moore 131 Moore 24 Joe Grieser 168 STYC 18:25:00 DNC 6 60
More Uff Da 26 Moore 24-1 Ben Braden 168 STYC 18:25:00 DNC 6 60
Morphine 72 Moore 24 Nick Farley 168 STYC 18:25:00 DNC 6 60
Norn 49450 Santa Cruz 27 Mitch Leupold 150 STYC 18:25:00 DNC 6 60

Class: 4 - Flying Sails Division - Start: 18:30:00 - Course: NMEMEN - Distance: 4.163      

Boat Name SailNo Boat Type Skipper Rating Club Start Finish Elapsed Corrected BCE Notes Place OA
Elixir 29 A 101 Jarred Swalwell 150 STYC 18:30:00 19:25:46 0:55:46 0:45:22 0:00:00 1 20
Outlaw 77108 J/30 Cindy Gossett 138 STYC 18:30:00 19:25:08 0:55:08 0:45:34 0:00:12 2 22
Wings 244 J/29 Jim Moynihan 120 STYC 18:30:00 19:24:19 0:54:19 0:45:59 0:00:37 3 24
Ruby 87603 J/29 Mh John Kazaras 120 STYC 18:30:00 19:25:27 0:55:27 0:47:07 0:01:45 4 28
Kowloon 17 Olson 911 Ken Chin 129 STYC 18:30:00 19:26:40 0:56:40 0:47:43 0:02:21 5 31
Grayling 7 Q Class Duke H Phan 144 STYC 18:30:00 19:28:58 0:58:58 0:48:59 0:03:37 6 35
Celtic Breeze 233 Ericson 35 Mk3 Glenn Knitter 159 STYC 18:30:00 19:33:40 1:03:40 0:52:38 0:07:16 7 41.5
Vela Volta 61314 Bavaria Match 35 Steve Kirsch 117 STYC 18:30:00 19:30:51 1:00:51 0:52:44 0:07:22 8 43
Mata Hari 1660 Catalina 36 Mkii Jeff Blyth 147 STYC 18:30:00 19:33:34 1:03:34 0:53:22 0:08:00 9 45
Kamoon Na Jeanneau Mike Taft 162 STYC 18:30:00 19:34:51 1:04:51 0:53:37 0:08:15 10 46
20degrees 18602 Wyle Duncan Chalmers 132 STYC 18:30:00 19:35:47 1:05:47 0:56:37 0:11:15 11 52
Gaucho 68 Ross 930 John Cahill 114 CYC 18:30:00 DNC 13 60
Velella 150 Wylie 31 Ryan Helling 165 STYC 18:30:00 CB 13 60

Class: 5 - Flying Sails Division - Start: 18:35:00 - Course: NMEMEN - Distance: 4.163      

Boat Name SailNo Boat Type Skipper Rating Club Start Finish Elapsed Corrected BCE Notes Place OA
Crazy Ivan USA-151 J/80 Bryan Rhodes 129 STYC 18:35:00 19:25:56 0:50:56 0:41:59 0:00:00 1 4.5
Reckless 296 J/80 Sezer Emre 129 STYC 18:35:00 19:27:32 0:52:32 0:43:35 0:01:36 2 9
Jolly Green 1 J/80 Mike Poole - Seattle Sailing Club 129 SSC 18:35:00 19:29:24 0:54:24 0:45:27 0:03:28 3 21
Underdog 85 J/80 Dulnath Wijayratne 129 SSC 18:35:00 19:30:08 0:55:08 0:46:11 0:04:12 4 25
Taj Mahal 445 J/80 Ian Wong 129 SSC 18:35:00 19:31:38 0:56:38 0:47:41 0:05:42 5 30
Fearful Symmetry 331 J/80 Elise Sivilay 129 SSC 18:35:00 19:33:53 0:58:53 0:49:56 0:07:57 6 39
Namaste 257 J/80 John Lueders 129 SSC 18:35:00 19:36:35 1:01:35 0:52:38 0:10:39 7 41.5
Uproar 41 J/80 Steve Neidhardt - Seattle Sailing Club 129 SSC 18:35:00 19:37:40 1:02:40 0:53:43 0:11:44 8 47
Stellar J 546 J/80 Andreas Wieberneit 129 SSC 18:35:00 19:37:41 1:02:41 0:53:44 0:11:45 9 48

Class: 6 - Flying Sails Division - Start: 18:40:00 - Course: NMEMEN - Distance: 4.163      

Boat Name SailNo Boat Type Skipper Rating Club Start Finish Elapsed Corrected BCE Notes Place OA
Poke & Destroy 69061 Evelyn 32-2 Alex P Simanis 93 STYC 18:40:00 19:27:48 0:47:48 0:41:21 0:00:00 1 2
Poisson Soluble 69351 Hobie 33 Robert Horsley 96 STYC 18:40:00 19:29:55 0:49:55 0:43:15 0:01:54 2 7
Liftoff 621 J/105 Philippe Le Mouel 93 STYC 18:40:00 19:30:25 0:50:25 0:43:58 0:02:37 3.5 11.5
Peer Gynt 235 J/105 Paul Viola 93 STYC 18:40:00 19:30:25 0:50:25 0:43:58 0:02:37 3.5 11.5
Creative 51911 J/105 Steve Summers - Seattle Sailing Club 93 SSC 18:40:00 19:30:44 0:50:44 0:44:17 0:02:56 5 14
Puff 115 J/105 Ryan Porter 93 SSC 18:40:00 19:31:22 0:51:22 0:44:55 0:03:34 6 17
Cyrano 253 J/105 Seattle Sailing Club 99 SSC 18:40:00 19:32:01 0:52:01 0:45:09 0:03:48 7 18
Dazed And Confused 129 Olson 30 Barry Crist 99 None Yet 18:40:00 DSQ Rating Pending 8 59
Avalanche 495 J/105 Jeremy Boynes 93 STYC 18:40:00 DNC 9 60
Corvo 105 475 J/105 Tom Kerr 93 STYC 18:40:00 DNC 9 60
Insubordination 212 J/105 Buckey 93 CYC 18:40:00 DNC 9 60
Latitude 60680 Jeanneau 409 Bill Gibson 93 STYC 18:40:00 DNC 9 60
Moose Unknown 89 J/105 John Aitchison 93 STYC 18:40:00 DNC 9 60
Paladin 412 J/105 Phil Bylsma - Seattle Sailing Club 93 SSC 18:40:00 DNC 9 60

Class: 7 - Flying Sails Division - Start: 18:45:00 - Course: NMEMEN - Distance: 4.163      

Boat Name SailNo Boat Type Skipper Rating Club Start Finish Elapsed Corrected BCE Notes Place OA
Freja RSA 2 Aerodyne 43 Jonathan Cruse 18 STYC 18:45:00 19:27:12 0:42:12 0:40:57 0:00:00 1 1
Project Mayhem USA 64 Farr 30 Grady Morgan 54 SYC 18:45:00 19:30:43 0:45:43 0:41:58 0:01:01 2 3
Shada 44 J/109 Jerry Woodfield 69 CYC 18:45:00 19:31:46 0:46:46 0:41:59 0:01:02 3 4.5
Lodos 171 J/109 Tolga Cezik 69 STYC/CYC 18:45:00 19:32:45 0:47:45 0:42:58 0:02:01 4 6
Lapa 309 J/109 Michael Campbell 69 STYC 18:45:00 19:33:09 0:48:09 0:43:22 0:02:25 5 8
Different Drummer 52804 Wauqueiz Centurion 40s Charles Hill 81 STYC 18:45:00 19:34:18 0:49:18 0:43:41 0:02:44 6 10
Tachyon 36000 Farr 39 C/R Jack Yinger 18 CYC 18:45:00 19:30:23 0:45:23 0:44:08 0:03:11 7 13
Those Guys 18155 J/35 Jenny Heins 72 STYC 18:45:00 19:34:26 0:49:26 0:44:26 0:03:29 8 15
Eclipse 256 J/109-2 Fraser 69 STYC 18:45:00 19:37:00 0:52:00 0:47:13 0:06:16 9 29
Re-Quest 18266 Express 37 Alex Wetmore & Kerry Billingham 72 STYC 18:45:00 19:39:25 0:54:25 0:49:25 0:08:28 10 36
Bat Out Of Hell USA 55 Farr 30 Lance Staughton 54 STYC 18:45:00 19:40:13 0:55:13 0:51:28 0:10:31 11 40
Escape 69160 Corsair F -27 Yury Palatnikov 79 Styc/Nwma 18:45:00 19:47:43 1:02:43 0:57:14 0:16:17 12 53
Artemis 97703 Andrews 53 Tom Muir -18 STYC 18:45:00 DNC 14 60
Nefarous USA 53 Farr 30 Dan Randolph 54 STYC 18:45:00 DNC 14 60
Tantivy 248 J/109 Stuart Burnell 69 CYC 18:45:00 DNC 14 60

STYC scoring (Thu, Aug 8, 2019 - 06:48:14 ver)